Time;durP1;ratioP1;P1;durP2;ratioP2;P2;SDS_P1;SDS_P2;PMS_P1;PMS_P2;Temp;Humidity;BMP_temperature;BMP_pressure;BME280_temperature;BME280_humidity;BME280_pressure;Samples;Min_cycle;Max_cycle;Signal;HPM_P1;HPM_P2
2022/05/19 00:00:01;;;;;;;8.70;6.03;;;;;;;17.61;100.00;101159.88;5252437;28;20559;-75
2022/05/19 00:02:31;;;;;;;6.88;5.47;;;;;;;17.65;100.00;101158.78;5250184;28;20112;-76
2022/05/19 00:05:01;;;;;;;7.20;5.20;;;;;;;17.67;100.00;101159.56;5254766;28;20553;-76
2022/05/19 00:07:31;;;;;;;7.63;5.50;;;;;;;17.66;100.00;101160.50;5254363;28;20647;-75
2022/05/19 00:10:03;;;;;;;8.67;5.73;;;;;;;17.60;100.00;101159.03;5256315;28;20285;-75
2022/05/19 00:12:34;;;;;;;10.38;5.70;;;;;;;17.46;100.00;101161.56;5253681;28;20270;-76
2022/05/19 00:15:04;;;;;;;6.97;5.55;;;;;;;17.44;100.00;101157.28;5256317;28;20397;-76
2022/05/19 00:17:41;;;;;;;8.07;5.70;;;;;;;17.50;100.00;101155.19;5253363;28;20029;-75
2022/05/19 00:20:11;;;;;;;6.30;5.55;;;;;;;17.50;100.00;101152.53;5233561;28;20119;-75
2022/05/19 00:22:41;;;;;;;8.18;5.80;;;;;;;17.48;100.00;101149.13;5243090;28;20115;-75
2022/05/19 00:25:11;;;;;;;9.23;5.90;;;;;;;17.49;100.00;101145.53;5243917;28;20029;-76
2022/05/19 00:27:42;;;;;;;7.07;5.60;;;;;;;17.37;100.00;101146.22;5247740;28;20377;-76
2022/05/19 00:30:13;;;;;;;10.00;5.90;;;;;;;17.52;100.00;101147.16;5256136;28;20278;-75
2022/05/19 00:32:43;;;;;;;8.50;5.30;;;;;;;17.42;100.00;101145.97;5253206;28;20279;-76
2022/05/19 00:35:13;;;;;;;8.67;5.03;;;;;;;17.47;100.00;101141.28;5256366;28;20108;-76
2022/05/19 00:37:43;;;;;;;9.20;5.78;;;;;;;17.41;100.00;101136.31;5253791;28;20840;-76
2022/05/19 00:40:16;;;;;;;9.18;5.80;;;;;;;17.41;100.00;101141.59;5244719;28;20115;-75
2022/05/19 00:42:47;;;;;;;9.35;5.72;;;;;;;17.39;100.00;101140.84;5241758;28;20543;-75
2022/05/19 00:45:22;;;;;;;9.40;5.82;;;;;;;17.24;100.00;101136.34;5252575;28;20032;-76
2022/05/19 00:48:07;;;;;;;7.45;5.13;;;;;;;17.49;100.00;101134.13;5255188;28;20024;-75
2022/05/19 00:50:59;;;;;;;9.60;5.47;;;;;;;17.46;100.00;101137.78;5252383;28;20074;-76
2022/05/19 00:53:57;;;;;;;9.60;5.28;;;;;;;17.31;100.00;101140.38;5252134;28;20484;-76
2022/05/19 00:56:39;;;;;;;9.02;5.72;;;;;;;17.46;100.00;101135.16;5241438;28;20094;-76
2022/05/19 00:59:12;;;;;;;10.88;5.32;;;;;;;17.36;100.00;101133.09;5246759;28;20040;-75
2022/05/19 01:01:44;;;;;;;8.73;5.22;;;;;;;17.37;100.00;101135.66;5243873;28;20032;-75
2022/05/19 01:04:24;;;;;;;8.52;5.28;;;;;;;17.34;100.00;101129.69;5253459;28;20028;-76
2022/05/19 01:07:01;;;;;;;10.10;5.45;;;;;;;17.20;100.00;101137.47;5253819;28;20024;-76
2022/05/19 01:09:35;;;;;;;6.55;5.53;;;;;;;17.31;100.00;101132.47;5255617;28;20362;-76
2022/05/19 01:12:06;;;;;;;8.77;5.72;;;;;;;17.22;100.00;101125.88;5252046;28;20111;-76
2022/05/19 01:14:37;;;;;;;6.75;5.15;;;;;;;17.17;100.00;101121.78;5256320;28;20512;-76
2022/05/19 01:17:07;;;;;;;10.75;6.20;;;;;;;17.15;100.00;101128.94;5251660;28;20070;-76
2022/05/19 01:19:42;;;;;;;7.25;5.28;;;;;;;16.98;100.00;101124.53;5247821;28;20017;-75
2022/05/19 01:22:31;;;;;;;7.50;5.72;;;;;;;17.00;100.00;101113.91;5248846;28;20028;-76
2022/05/19 01:25:09;;;;;;;8.55;6.18;;;;;;;16.98;100.00;101121.91;5245495;28;20028;-76
2022/05/19 01:27:39;;;;;;;7.53;5.30;;;;;;;16.99;100.00;101117.47;5246881;28;20661;-75
2022/05/19 01:30:11;;;;;;;10.80;6.03;;;;;;;16.94;100.00;101116.88;5247183;28;20032;-76
2022/05/19 01:32:41;;;;;;;6.68;5.22;;;;;;;17.01;100.00;101115.59;5247679;28;20841;-75
2022/05/19 01:35:12;;;;;;;6.45;5.07;;;;;;;16.98;100.00;101116.63;5252469;28;20040;-76
2022/05/19 01:37:42;;;;;;;7.85;5.50;;;;;;;17.06;100.00;101113.56;5255159;28;20103;-76
2022/05/19 01:40:15;;;;;;;6.45;5.05;;;;;;;17.12;100.00;101116.72;5251523;28;20038;-75
2022/05/19 01:43:25;;;;;;;7.70;5.50;;;;;;;17.11;100.00;101109.75;5254662;28;20505;-75
2022/05/19 01:46:09;;;;;;;7.00;5.03;;;;;;;17.07;100.00;101118.78;5261143;22;20037;-73
2022/05/19 01:49:07;;;;;;;7.70;5.47;;;;;;;16.92;100.00;101124.00;5216524;28;20041;-74
2022/05/19 01:51:53;;;;;;;7.88;5.35;;;;;;;16.89;100.00;101116.25;5217267;28;20100;-74
2022/05/19 01:54:51;;;;;;;9.13;5.50;;;;;;;16.80;100.00;101119.38;5221559;28;20086;-74
2022/05/19 01:57:24;;;;;;;9.55;5.53;;;;;;;16.80;100.00;101111.47;5222035;28;20563;-74
2022/05/19 02:00:03;;;;;;;9.38;5.53;;;;;;;16.77;100.00;101116.03;5221988;28;20391;-74
2022/05/19 02:02:58;;;;;;;8.93;5.75;;;;;;;16.82;100.00;101114.88;5220737;28;20028;-74
2022/05/19 02:05:32;;;;;;;7.85;5.63;;;;;;;16.73;100.00;101112.69;5220613;28;20397;-74
2022/05/19 02:08:05;;;;;;;7.57;5.28;;;;;;;16.75;100.00;101113.47;5221913;28;20025;-74
2022/05/19 02:10:40;;;;;;;7.50;5.68;;;;;;;16.53;100.00;101115.53;5220917;28;20036;-74
2022/05/19 02:13:11;;;;;;;7.10;5.45;;;;;;;16.57;100.00;101114.41;5218087;28;20036;-74
2022/05/19 02:15:45;;;;;;;7.90;6.13;;;;;;;16.60;100.00;101108.16;5221348;28;20025;-74
2022/05/19 02:18:17;;;;;;;11.30;6.38;;;;;;;16.50;100.00;101102.47;5220903;28;20044;-74
2022/05/19 02:20:49;;;;;;;8.23;5.80;;;;;;;16.60;100.00;101109.00;5222016;28;20489;-74
2022/05/19 02:23:19;;;;;;;9.48;5.45;;;;;;;16.60;100.00;101103.72;5221718;28;20033;-74
2022/05/19 02:25:53;;;;;;;8.85;5.60;;;;;;;16.57;100.00;101110.94;5221946;28;20032;-74
2022/05/19 02:28:32;;;;;;;8.85;5.97;;;;;;;16.51;100.00;101109.47;5202389;28;20394;-74
2022/05/19 02:31:03;;;;;;;8.10;6.43;;;;;;;16.47;100.00;101110.56;5221373;28;20033;-74
2022/05/19 02:33:34;;;;;;;9.02;5.82;;;;;;;16.52;100.00;101110.34;5221231;28;20039;-74
2022/05/19 02:36:05;;;;;;;7.65;5.85;;;;;;;16.56;100.00;101107.44;5221441;28;20032;-73
2022/05/19 02:38:35;;;;;;;9.13;6.22;;;;;;;16.29;100.00;101114.09;5219863;28;20033;-74
2022/05/19 02:41:06;;;;;;;8.77;6.30;;;;;;;16.37;100.00;101114.59;5220686;28;20048;-74
2022/05/19 02:43:36;;;;;;;9.80;6.00;;;;;;;16.50;100.00;101118.31;5221528;28;20021;-74
2022/05/19 02:46:06;;;;;;;7.93;6.25;;;;;;;16.58;100.00;101117.94;5220711;28;20394;-74
2022/05/19 02:48:37;;;;;;;10.07;6.50;;;;;;;16.60;100.00;101116.06;5220541;28;20389;-74
2022/05/19 02:51:07;;;;;;;8.47;6.27;;;;;;;16.48;100.00;101120.19;5203121;28;20275;-74
2022/05/19 02:53:37;;;;;;;11.07;6.78;;;;;;;16.50;100.00;101112.16;5216400;28;20554;-74
2022/05/19 02:56:07;;;;;;;9.15;6.32;;;;;;;16.53;100.00;101119.97;5220657;28;20036;-74
2022/05/19 02:58:38;;;;;;;10.35;6.85;;;;;;;16.54;100.00;101119.88;5221062;28;20068;-74
2022/05/19 03:01:08;;;;;;;10.73;6.43;;;;;;;16.63;100.00;101116.78;5219927;28;20405;-74
2022/05/19 03:03:38;;;;;;;7.88;6.32;;;;;;;16.62;100.00;101117.69;5220322;28;20279;-73
2022/05/19 03:06:08;;;;;;;10.33;6.73;;;;;;;16.47;100.00;101114.97;5221247;28;20072;-74
2022/05/19 03:08:39;;;;;;;11.07;7.10;;;;;;;16.39;100.00;101109.25;5202160;28;20776;-73
2022/05/19 03:11:09;;;;;;;10.18;6.65;;;;;;;16.40;100.00;101114.44;5220266;28;20664;-74
2022/05/19 03:13:39;;;;;;;10.32;7.45;;;;;;;16.32;100.00;101105.16;5220917;28;20025;-74
2022/05/19 03:16:10;;;;;;;9.90;6.55;;;;;;;16.30;100.00;101105.25;5220735;28;20028;-74
2022/05/19 03:18:40;;;;;;;13.40;7.45;;;;;;;16.36;100.00;101104.13;5219593;28;20385;-74
2022/05/19 03:21:10;;;;;;;11.37;8.07;;;;;;;16.23;100.00;101103.84;5220453;28;20024;-74
2022/05/19 03:23:40;;;;;;;11.90;8.32;;;;;;;16.20;100.00;101111.06;5219919;28;20606;-74
2022/05/19 03:26:11;;;;;;;13.07;7.93;;;;;;;16.19;100.00;101112.00;5202392;28;20389;-73
2022/05/19 03:28:41;;;;;;;11.93;7.65;;;;;;;16.25;100.00;101111.69;5220187;28;20354;-74
2022/05/19 03:31:11;;;;;;;10.37;8.30;;;;;;;16.20;100.00;101104.00;5219674;28;20075;-74
2022/05/19 03:33:42;;;;;;;10.80;7.63;;;;;;;16.19;100.00;101104.94;5220589;28;20271;-74
2022/05/19 03:36:12;;;;;;;10.52;7.82;;;;;;;16.27;100.00;101108.06;5220938;28;20025;-74
2022/05/19 03:38:42;;;;;;;11.82;8.23;;;;;;;16.40;100.00;101101.22;5221041;28;20107;-74
2022/05/19 03:41:13;;;;;;;10.90;7.75;;;;;;;16.25;100.00;101106.41;5224873;28;20040;-74
2022/05/19 03:43:44;;;;;;;13.20;8.23;;;;;;;16.11;100.00;101103.59;5225131;28;20421;-74
2022/05/19 03:46:14;;;;;;;10.82;8.73;;;;;;;16.08;100.00;101104.59;5224464;28;20316;-74
2022/05/19 03:48:44;;;;;;;12.05;8.68;;;;;;;16.01;100.00;101107.66;5223582;28;20504;-74
2022/05/19 03:51:23;;;;;;;11.38;8.02;;;;;;;16.01;100.00;101103.22;5205199;28;20028;-74
2022/05/19 03:53:54;;;;;;;10.77;8.35;;;;;;;15.79;100.00;101106.97;5223755;28;20025;-74
2022/05/19 03:56:26;;;;;;;11.50;8.48;;;;;;;15.89;100.00;101109.06;5223657;28;20044;-74
2022/05/19 03:58:56;;;;;;;11.38;8.85;;;;;;;15.96;100.00;101107.88;5224864;28;20398;-74
2022/05/19 04:01:27;;;;;;;11.43;8.38;;;;;;;16.04;100.00;101107.50;5223840;28;20100;-74
2022/05/19 04:03:59;;;;;;;12.02;8.30;;;;;;;16.05;100.00;101101.28;5223628;28;20036;-74
2022/05/19 04:06:29;;;;;;;10.45;8.07;;;;;;;16.18;100.00;101105.03;5223820;28;20382;-74
2022/05/19 04:09:00;;;;;;;12.85;8.63;;;;;;;16.18;100.00;101099.75;5224356;28;20021;-74
2022/05/19 04:11:31;;;;;;;10.85;8.50;;;;;;;16.21;100.00;101100.44;5204816;28;20490;-74
2022/05/19 04:14:02;;;;;;;12.13;7.95;;;;;;;16.39;100.00;101109.25;5205063;28;20033;-74
2022/05/19 04:16:32;;;;;;;12.45;8.82;;;;;;;16.29;100.00;101108.81;5223747;28;20028;-74
2022/05/19 04:19:02;;;;;;;11.32;8.73;;;;;;;16.36;100.00;101104.13;5222788;28;20036;-74
2022/05/19 04:21:33;;;;;;;17.88;8.60;;;;;;;16.56;100.00;101101.31;5223395;28;20183;-73
2022/05/19 04:24:06;;;;;;;11.70;8.45;;;;;;;16.56;100.00;101106.59;5204962;28;20041;-74
2022/05/19 04:26:37;;;;;;;11.23;8.23;;;;;;;16.60;100.00;101100.22;5223830;28;20442;-74
2022/05/19 04:29:08;;;;;;;11.77;8.43;;;;;;;16.91;100.00;101104.69;5218875;28;20029;-74
2022/05/19 04:31:38;;;;;;;9.77;7.43;;;;;;;17.24;100.00;101099.34;5223924;28;20104;-74
2022/05/19 04:34:08;;;;;;;10.38;7.22;;;;;;;17.55;100.00;101099.41;5223632;28;20541;-74
2022/05/19 04:36:38;;;;;;;9.48;7.32;;;;;;;17.88;100.00;101102.81;5223363;28;20041;-74
2022/05/19 04:39:09;;;;;;;8.13;6.63;;;;;;;18.22;100.00;101102.56;5223897;28;20409;-74
2022/05/19 04:41:39;;;;;;;8.30;6.00;;;;;;;18.46;100.00;101098.50;5223395;28;20323;-74
2022/05/19 04:44:09;;;;;;;9.88;6.18;;;;;;;18.42;99.42;101097.00;5205655;28;20298;-74
2022/05/19 04:46:40;;;;;;;7.70;5.53;;;;;;;18.86;97.68;101094.22;5219345;28;20115;-74
2022/05/19 04:49:10;;;;;;;10.13;6.13;;;;;;;18.50;98.66;101094.75;5223176;28;20509;-74
2022/05/19 04:51:40;;;;;;;10.33;6.13;;;;;;;18.51;99.19;101101.75;5223213;28;20028;-74
2022/05/19 04:54:11;;;;;;;9.43;5.50;;;;;;;18.80;99.94;101099.88;5205127;28;20272;-74
2022/05/19 04:56:42;;;;;;;8.93;5.45;;;;;;;18.76;97.49;101108.13;5223415;28;20113;-74
2022/05/19 04:59:15;;;;;;;5.90;5.03;;;;;;;19.13;96.46;101108.41;5223553;28;20425;-74
2022/05/19 05:01:47;;;;;;;8.18;5.70;;;;;;;18.96;97.41;101111.25;5222633;28;20474;-74
2022/05/19 05:04:19;;;;;;;7.75;5.38;;;;;;;19.00;99.71;101111.91;5223120;28;20424;-74
2022/05/19 05:06:49;;;;;;;7.95;5.68;;;;;;;18.86;100.00;101112.78;5223083;28;20126;-74
2022/05/19 05:09:19;;;;;;;9.60;5.50;;;;;;;19.10;99.05;101113.91;5222032;28;20021;-74
2022/05/19 05:11:50;;;;;;;8.02;5.10;;;;;;;19.69;96.06;101108.38;5222999;28;20032;-74
2022/05/19 05:14:21;;;;;;;8.88;5.18;;;;;;;20.30;94.99;101105.22;5222851;28;20422;-75
2022/05/19 05:16:53;;;;;;;8.20;4.50;;;;;;;20.80;92.40;101114.97;5221764;28;20053;-74
2022/05/19 05:19:25;;;;;;;5.80;4.40;;;;;;;20.96;90.93;101109.47;5222818;28;20094;-75
2022/05/19 05:21:57;;;;;;;5.68;4.53;;;;;;;21.04;93.33;101115.13;5222234;28;20020;-75
2022/05/19 05:24:28;;;;;;;5.63;4.10;;;;;;;21.54;91.57;101118.53;5221743;28;20067;-74
2022/05/19 05:26:58;;;;;;;6.35;4.25;;;;;;;22.16;87.06;101111.28;5221634;28;20056;-75
2022/05/19 05:29:28;;;;;;;5.95;4.00;;;;;;;22.93;82.66;101115.06;5221178;28;20029;-74
2022/05/19 05:31:59;;;;;;;7.28;4.72;;;;;;;22.92;81.33;101111.56;5222379;28;20110;-75
2022/05/19 05:34:29;;;;;;;7.47;4.20;;;;;;;23.09;81.53;101113.75;5221272;28;20051;-74
2022/05/19 05:37:00;;;;;;;6.10;3.83;;;;;;;23.41;80.26;101113.88;5221067;28;20040;-75
2022/05/19 05:39:30;;;;;;;7.18;4.40;;;;;;;22.83;82.45;101117.59;5222057;28;20086;-75
2022/05/19 05:42:02;;;;;;;7.00;4.70;;;;;;;23.11;81.87;101111.84;5203427;28;20444;-75
2022/05/19 05:44:32;;;;;;;7.53;3.97;;;;;;;24.10;78.69;101103.72;5221876;28;20268;-75
2022/05/19 05:47:03;;;;;;;5.88;4.18;;;;;;;23.39;82.26;101108.66;5221683;28;20082;-75
2022/05/19 05:49:34;;;;;;;5.78;4.15;;;;;;;23.12;83.73;101102.88;5221209;28;20025;-75
2022/05/19 05:52:05;;;;;;;5.65;4.32;;;;;;;23.55;81.16;101110.97;5203110;28;20168;-75
2022/05/19 05:54:35;;;;;;;5.53;4.07;;;;;;;24.10;78.01;101103.72;5220464;28;20021;-75
2022/05/19 05:57:06;;;;;;;6.27;4.50;;;;;;;23.02;83.51;101112.50;5220152;28;20048;-74
2022/05/19 05:59:36;;;;;;;7.13;4.40;;;;;;;22.58;86.92;101121.41;5220845;28;20354;-74
2022/05/19 06:02:06;;;;;;;6.57;4.07;;;;;;;22.94;84.63;101108.75;5201759;28;20036;-74
2022/05/19 06:04:37;;;;;;;5.25;4.07;;;;;;;22.55;86.79;101110.97;5221196;28;20016;-74
2022/05/19 06:07:07;;;;;;;5.47;3.72;;;;;;;23.27;85.99;101104.31;5221511;28;20025;-74
2022/05/19 06:09:39;;;;;;;8.00;4.00;;;;;;;23.17;86.24;101100.69;5221452;28;20020;-75
2022/05/19 06:12:10;;;;;;;5.55;3.63;;;;;;;23.62;84.09;101113.03;5217054;28;20283;-75
2022/05/19 06:14:40;;;;;;;8.13;4.40;;;;;;;23.37;86.61;101113.28;5221503;28;20390;-74
2022/05/19 06:17:10;;;;;;;5.80;3.67;;;;;;;23.54;86.23;101107.44;5203571;28;20037;-73
2022/05/19 06:19:41;;;;;;;6.47;4.03;;;;;;;23.65;87.15;101117.25;5221141;28;20501;-75
2022/05/19 06:22:11;;;;;;;5.45;3.65;;;;;;;23.96;85.64;101117.34;5220766;28;20029;-74
2022/05/19 06:24:41;;;;;;;6.97;3.10;;;;;;;24.09;87.05;101111.84;5221337;28;20029;-74
2022/05/19 06:27:11;;;;;;;5.43;3.13;;;;;;;23.86;86.96;101113.72;5219709;28;20772;-74
2022/05/19 06:29:42;;;;;;;6.83;3.37;;;;;;;24.03;83.77;101115.84;5221258;28;20286;-74
2022/05/19 06:32:13;;;;;;;9.82;3.20;;;;;;;23.86;86.34;101120.91;5220785;28;20701;-74
2022/05/19 06:34:43;;;;;;;6.72;3.10;;;;;;;23.72;87.61;101113.13;5220677;28;20470;-74
2022/05/19 06:37:13;;;;;;;6.20;3.30;;;;;;;24.36;84.40;101118.41;5220400;28;20355;-75
2022/05/19 06:39:44;;;;;;;4.67;3.33;;;;;;;24.11;86.02;101116.09;5219355;28;20040;-74
2022/05/19 06:42:14;;;;;;;5.53;3.47;;;;;;;24.40;82.66;101122.50;5202911;28;20268;-75
2022/05/19 06:44:45;;;;;;;4.50;2.85;;;;;;;24.61;84.74;101109.19;5222113;28;20526;-75
2022/05/19 06:47:15;;;;;;;6.60;3.20;;;;;;;24.69;83.38;101112.06;5221006;28;20663;-75
2022/05/19 06:49:48;;;;;;;5.03;2.77;;;;;;;25.11;79.79;101119.94;5203428;28;20029;-74
2022/05/19 06:52:21;;;;;;;4.40;3.20;;;;;;;25.16;80.42;101106.97;5220001;28;20356;-75
2022/05/19 06:54:54;;;;;;;4.70;3.00;;;;;;;25.08;79.00;101112.13;5220897;28;20064;-75
2022/05/19 06:57:26;;;;;;;4.40;2.60;;;;;;;26.45;72.10;101100.50;5220987;28;20540;-75
2022/05/19 06:59:56;;;;;;;3.38;2.65;;;;;;;25.97;74.45;101107.72;5221218;28;20199;-75
2022/05/19 07:02:26;;;;;;;4.57;2.50;;;;;;;27.11;70.96;101108.50;5221110;28;20025;-75
2022/05/19 07:04:57;;;;;;;4.40;2.70;;;;;;;27.16;69.11;101104.38;5220292;28;20315;-75
2022/05/19 07:07:27;;;;;;;6.43;2.45;;;;;;;27.68;69.07;101106.38;5220479;28;20040;-75
2022/05/19 07:09:57;;;;;;;5.60;2.60;;;;;;;26.43;72.56;101108.72;5220884;28;21042;-75
2022/05/19 07:12:28;;;;;;;4.87;2.43;;;;;;;26.08;73.70;101110.25;5219668;28;20115;-75
2022/05/19 07:14:58;;;;;;;5.47;2.53;;;;;;;26.73;74.13;101109.41;5219906;28;20040;-73
2022/05/19 07:17:28;;;;;;;3.27;2.20;;;;;;;28.00;71.44;101097.84;5220477;28;20325;-74
2022/05/19 07:22:47;;;;;;;4.03;2.55;;;;;;;28.91;67.41;101100.00;5218041;28;20501;-74
2022/05/19 07:25:18;;;;;;;4.03;2.10;;;;;;;28.61;69.31;101104.97;5220415;28;20103;-73
2022/05/19 07:27:48;;;;;;;3.38;1.90;;;;;;;29.79;64.96;101091.53;5220230;28;20033;-73
2022/05/19 07:30:19;;;;;;;8.32;2.80;;;;;;;29.52;63.50;101111.50;5220766;28;20040;-74
2022/05/19 07:32:50;;;;;;;3.10;1.90;;;;;;;29.50;64.65;101096.47;5221185;28;20052;-73
2022/05/19 07:35:21;;;;;;;4.30;2.15;;;;;;;30.66;62.31;101098.06;5220737;28;20029;-74
2022/05/19 07:37:51;;;;;;;2.55;1.80;;;;;;;31.01;59.78;101088.56;5220150;28;20036;-74
2022/05/19 07:40:22;;;;;;;4.05;2.00;;;;;;;30.28;59.77;101094.16;5220797;28;20036;-73
2022/05/19 07:42:52;;;;;;;5.13;1.65;;;;;;;31.31;61.33;101079.72;5220807;28;20033;-73
2022/05/19 07:45:22;;;;;;;3.37;1.63;;;;;;;32.55;58.98;101083.00;5220906;28;20474;-73
2022/05/19 07:47:53;;;;;;;4.15;1.75;;;;;;;30.68;59.59;101086.09;5244541;22;20311;-73
2022/05/19 07:50:24;;;;;;;5.88;2.13;;;;;;;30.75;58.66;101081.69;5211275;28;20036;-74
2022/05/19 07:52:54;;;;;;;4.35;1.90;;;;;;;31.28;59.81;101085.47;5241673;28;20017;-74
2022/05/19 07:55:25;;;;;;;3.63;1.70;;;;;;;31.45;57.88;101081.69;5223677;28;20029;-74
2022/05/19 07:57:56;;;;;;;2.42;1.70;;;;;;;30.78;61.31;101085.91;5202286;28;20033;-75
2022/05/19 08:00:26;;;;;;;5.83;2.20;;;;;;;30.17;62.31;101090.94;5223678;28;20395;-73
2022/05/19 08:02:57;;;;;;;3.10;1.90;;;;;;;29.46;60.21;101082.50;5244181;28;20048;-75
2022/05/19 08:05:27;;;;;;;4.40;1.80;;;;;;;30.36;57.32;101085.22;5225378;28;20025;-73
2022/05/19 08:07:57;;;;;;;3.95;1.85;;;;;;;29.50;59.42;101077.63;5229617;28;20277;-74
2022/05/19 08:10:28;;;;;;;6.27;1.77;;;;;;;30.04;58.35;101077.09;5242804;28;20082;-74
2022/05/19 08:15:48;;;;;;;3.58;1.65;;;;;;;30.51;59.24;101062.81;5237460;28;20038;-72
2022/05/19 08:18:21;;;;;;;3.85;1.75;;;;;;;30.12;60.55;101060.94;5224547;28;20047;-74
2022/05/19 08:20:56;;;;;;;2.83;1.65;;;;;;;30.63;62.34;101058.75;5243057;28;20401;-74
2022/05/19 08:23:29;;;;;;;4.60;1.83;;;;;;;30.55;60.04;101055.19;5241936;28;20133;-74
2022/05/19 08:26:00;;;;;;;2.78;1.60;;;;;;;30.35;60.55;101053.84;5232674;28;20496;-73
2022/05/19 08:28:31;;;;;;;5.05;2.00;;;;;;;30.28;61.59;101053.69;5229527;28;20074;-74
2022/05/19 08:31:10;;;;;;;4.03;2.05;;;;;;;30.87;60.02;101059.53;5246963;28;20481;-74
2022/05/19 08:33:43;;;;;;;7.13;1.88;;;;;;;31.00;60.75;101059.03;5188599;28;20040;-74
2022/05/19 08:36:13;;;;;;;2.97;1.75;;;;;;;30.52;61.43;101052.81;5230976;28;20485;-73
2022/05/19 08:38:43;;;;;;;4.65;1.90;;;;;;;30.87;61.52;101051.44;5243749;28;20035;-74
2022/05/19 08:41:26;;;;;;;2.90;1.70;;;;;;;31.02;61.17;101052.41;5247040;28;20028;-74
2022/05/19 08:44:05;;;;;;;4.43;1.80;;;;;;;31.35;59.24;101050.47;5246858;28;20419;-74
2022/05/19 08:46:38;;;;;;;5.07;1.90;;;;;;;31.12;57.49;101053.09;5246687;28;20447;-74
2022/05/19 08:49:30;;;;;;;4.03;1.80;;;;;;;30.45;59.24;101049.97;5238539;28;20058;-74
2022/05/19 08:52:04;;;;;;;4.20;1.80;;;;;;;30.94;59.72;101049.75;5246960;28;20032;-74
2022/05/19 08:54:37;;;;;;;3.10;1.83;;;;;;;29.53;59.73;101047.63;5239645;28;20030;-74
2022/05/19 08:57:20;;;;;;;3.22;1.83;;;;;;;30.13;58.53;101043.75;5229695;28;20039;-73
2022/05/19 09:00:10;;;;;;;2.70;1.60;;;;;;;29.32;60.75;101039.13;5241629;28;20028;-74
2022/05/19 09:02:56;;;;;;;5.57;1.90;;;;;;;29.24;59.88;101039.94;5231208;28;20052;-73
2022/05/19 09:06:04;;;;;;;7.15;2.00;;;;;;;28.75;61.99;101039.81;5232637;28;20021;-74
2022/05/19 09:09:24;;;;;;;5.00;1.70;;;;;;;28.90;62.00;101039.09;5229143;28;20435;-74
2022/05/19 09:12:08;;;;;;;5.00;2.13;;;;;;;29.34;62.42;101037.09;5226379;28;20505;-74
2022/05/19 09:14:39;;;;;;;6.22;1.80;;;;;;;29.12;60.78;101026.94;5224374;28;20029;-73
2022/05/19 09:17:11;;;;;;;4.60;1.80;;;;;;;29.97;61.30;101024.81;5207686;28;20039;-73
2022/05/19 09:19:53;;;;;;;5.50;1.85;;;;;;;29.71;62.55;101034.91;5233932;28;20035;-74
2022/05/19 09:22:26;;;;;;;3.40;1.80;;;;;;;30.53;61.73;101027.53;5246221;28;20119;-74
2022/05/19 09:24:56;;;;;;;2.78;1.60;;;;;;;31.60;57.14;101031.25;5231961;28;20025;-74
2022/05/19 09:27:27;;;;;;;2.80;1.60;;;;;;;31.29;56.34;101026.84;5226160;28;20078;-74
2022/05/19 09:29:58;;;;;;;3.38;1.90;;;;;;;30.37;57.05;101017.59;5236253;28;20389;-73
2022/05/19 09:32:39;;;;;;;3.72;1.95;;;;;;;29.87;59.13;101018.72;5246282;28;20032;-73
2022/05/19 09:35:19;;;;;;;4.53;1.73;;;;;;;29.81;58.74;101022.97;5205225;28;20124;-74
2022/05/19 09:38:05;;;;;;;3.88;2.10;;;;;;;29.63;63.13;101013.31;5239774;28;20039;-73
2022/05/19 09:40:39;;;;;;;3.33;1.60;;;;;;;30.37;58.13;101005.94;5228071;28;20047;-74
2022/05/19 09:43:20;;;;;;;3.13;1.73;;;;;;;31.05;57.30;101002.59;5221030;28;20067;-74
2022/05/19 09:46:03;;;;;;;2.45;1.65;;;;;;;30.64;58.81;101014.56;5231364;28;20116;-74
2022/05/19 09:48:39;;;;;;;2.85;1.75;;;;;;;30.12;57.98;101012.38;5245764;28;20036;-74
2022/05/19 09:51:14;;;;;;;5.40;1.83;;;;;;;30.63;60.06;101007.44;5229848;28;20033;-74
2022/05/19 09:53:52;;;;;;;5.27;1.80;;;;;;;30.82;60.82;100998.13;5241147;28;20485;-74
2022/05/19 09:56:25;;;;;;;7.20;2.00;;;;;;;30.92;58.16;101003.16;5225100;28;20553;-75
2022/05/19 09:59:07;;;;;;;3.53;1.92;;;;;;;29.93;58.57;100997.34;5213355;28;20111;-73
2022/05/19 10:01:40;;;;;;;3.45;2.08;;;;;;;30.00;59.10;100997.50;5245152;28;20024;-74
2022/05/19 10:04:15;;;;;;;4.10;1.80;;;;;;;30.34;60.00;100990.09;5234737;28;20033;-73
2022/05/19 10:06:51;;;;;;;3.65;1.65;;;;;;;29.99;59.44;100996.69;5228814;28;20112;-73
2022/05/19 10:09:39;;;;;;;3.38;1.90;;;;;;;29.84;57.33;100986.72;5208841;28;20068;-74
2022/05/19 10:12:20;;;;;;;3.10;2.10;;;;;;;29.65;62.50;100995.97;5219273;28;20077;-74
2022/05/19 10:15:04;;;;;;;4.50;2.03;;;;;;;29.31;61.25;100983.56;5227083;28;20032;-74
2022/05/19 10:17:45;;;;;;;2.40;1.70;;;;;;;29.85;61.65;100978.47;5244850;28;20113;-74
2022/05/19 10:20:22;;;;;;;5.30;2.00;;;;;;;29.41;61.73;100976.19;5221448;28;20726;-73
2022/05/19 10:23:15;;;;;;;3.03;1.90;;;;;;;28.99;62.51;100973.53;5245395;28;20040;-73
2022/05/19 10:26:04;;;;;;;3.20;1.95;;;;;;;29.30;61.52;100960.31;5206405;28;20059;-74
2022/05/19 10:32:18;;;;;;;3.75;1.83;;;;;;;29.02;59.82;100945.41;5227714;28;20028;-74
2022/05/19 10:35:33;;;;;;;8.77;2.30;;;;;;;28.98;59.60;100941.38;5239732;28;20107;-73
2022/05/19 10:38:34;;;;;;;8.88;1.88;;;;;;;28.48;61.22;100937.72;5244513;28;20307;-74
2022/05/19 10:41:34;;;;;;;3.00;1.90;;;;;;;28.41;62.25;100927.78;5244535;28;20032;-74
2022/05/19 10:44:29;;;;;;;4.82;1.92;;;;;;;28.47;61.09;100917.22;5174844;28;20048;-73
2022/05/19 10:47:21;;;;;;;2.75;1.83;;;;;;;28.77;63.29;100914.88;5225523;28;20039;-73
2022/05/19 10:50:15;;;;;;;4.15;2.10;;;;;;;28.72;63.86;100910.09;5226611;28;20033;-74
2022/05/19 10:53:02;;;;;;;3.22;1.90;;;;;;;29.10;61.47;100911.28;5217598;28;20056;-74
2022/05/19 10:55:42;;;;;;;3.50;2.13;;;;;;;28.85;59.46;100905.94;5225651;28;20029;-73
2022/05/19 10:58:31;;;;;;;5.57;2.03;;;;;;;29.10;61.58;100905.06;5237304;28;20570;-73
2022/05/19 11:01:18;;;;;;;5.47;2.00;;;;;;;29.44;62.58;100903.09;5244846;28;20028;-73
2022/05/19 11:04:24;;;;;;;3.42;1.80;;;;;;;29.70;62.89;100893.03;5244247;28;20020;-74
2022/05/19 11:07:27;;;;;;;5.32;1.88;;;;;;;29.33;57.88;100900.72;5221374;28;20021;-74
2022/05/19 11:10:12;;;;;;;2.45;1.70;;;;;;;29.00;56.69;100897.13;5241693;28;20082;-73
2022/05/19 11:13:01;;;;;;;4.43;2.08;;;;;;;29.23;60.35;100889.28;5244326;28;20043;-73
2022/05/19 11:15:45;;;;;;;3.00;1.80;;;;;;;29.31;62.46;100886.56;5244309;28;20094;-74
2022/05/19 11:18:33;;;;;;;3.80;1.80;;;;;;;29.51;59.77;100878.03;5229343;28;20486;-74
2022/05/19 11:21:22;;;;;;;3.22;1.42;;;;;;;29.42;58.28;100883.56;5243605;28;20109;-73
2022/05/19 11:23:59;;;;;;;3.85;1.80;;;;;;;29.64;58.95;100872.16;5226597;28;20056;-74
2022/05/19 11:26:48;;;;;;;3.45;1.70;;;;;;;29.59;56.72;100867.25;5226468;28;20027;-73
2022/05/19 11:29:32;;;;;;;3.72;1.70;;;;;;;29.84;58.72;100855.47;5238047;28;20024;-74
2022/05/19 11:32:32;;;;;;;4.70;1.77;;;;;;;29.82;57.68;100856.63;5205019;28;20510;-75
2022/05/19 11:35:06;;;;;;;3.55;1.67;;;;;;;29.69;58.45;100862.53;5240891;28;20123;-73
2022/05/19 11:37:53;;;;;;;5.97;1.80;;;;;;;30.04;61.36;100856.81;5244193;28;20029;-73
2022/05/19 11:40:36;;;;;;;4.95;1.60;;;;;;;29.72;54.75;100845.19;5231229;28;20455;-73
2022/05/19 11:43:22;;;;;;;3.42;1.90;;;;;;;29.50;54.98;100838.63;5244212;28;20481;-73
2022/05/19 11:45:59;;;;;;;2.65;1.58;;;;;;;29.62;55.80;100844.53;5244099;28;20032;-72
2022/05/19 11:57:40;;;;;;;4.10;1.50;;;;;;;30.07;57.32;100820.56;5230340;28;20040;-74
2022/05/19 12:00:18;;;;;;;3.85;1.73;;;;;;;30.43;59.65;100824.47;5219408;28;20394;-73
2022/05/19 12:02:55;;;;;;;4.57;1.50;;;;;;;30.44;53.18;100821.59;5241643;28;20158;-74
2022/05/19 12:05:30;;;;;;;3.00;1.38;;;;;;;30.52;56.07;100810.78;5247834;28;20039;-73
2022/05/19 12:08:12;;;;;;;3.83;1.50;;;;;;;30.37;54.03;100817.91;5247683;28;20020;-73
2022/05/19 12:10:53;;;;;;;2.70;1.27;;;;;;;30.06;54.29;100808.91;5247438;28;20481;-74
2022/05/19 12:13:34;;;;;;;3.15;1.60;;;;;;;29.74;56.25;100794.66;5247388;28;20071;-73
2022/05/19 12:16:12;;;;;;;3.67;1.60;;;;;;;29.50;57.91;100797.38;5229627;28;20043;-72